Time;durP1;ratioP1;P1;durP2;ratioP2;P2;SDS_P1;SDS_P2;PMS_P1;PMS_P2;Temp;Humidity;BMP_temperature;BMP_pressure;BME280_temperature;BME280_humidity;BME280_pressure;Samples;Min_cycle;Max_cycle;Signal;HPM_P1;HPM_P2
2021/08/10 00:01:43;;;;;;;3.38;2.65;;;20.90;68.90;;;20.91;52.81;95364.06;5012308;28;20286;-88
2021/08/10 00:04:10;;;;;;;3.30;2.47;;;20.90;69.00;;;20.91;53.36;95359.56;5029411;28;20283;-88
2021/08/10 00:06:37;;;;;;;2.97;2.63;;;20.90;69.00;;;20.90;53.07;95357.94;5015602;28;20221;-88
2021/08/10 00:09:04;;;;;;;3.92;2.95;;;20.80;69.10;;;20.89;53.42;95363.53;5015550;28;20192;-87
2021/08/10 00:11:31;;;;;;;3.63;2.70;;;20.80;70.20;;;20.93;53.17;95367.31;5029054;28;20270;-87
2021/08/10 00:13:59;;;;;;;3.20;2.70;;;20.80;69.30;;;20.91;53.64;95372.91;5035251;28;20272;-87
2021/08/10 00:16:27;;;;;;;2.88;2.60;;;20.80;69.40;;;20.91;53.71;95380.91;5035466;28;20265;-87
2021/08/10 00:18:54;;;;;;;3.28;2.55;;;20.90;69.50;;;20.92;53.48;95371.84;5015083;28;20200;-88
2021/08/10 00:21:21;;;;;;;3.67;3.10;;;20.80;69.60;;;20.93;53.95;95375.31;5031749;28;20691;-88
2021/08/10 00:23:48;;;;;;;3.28;2.97;;;20.80;69.60;;;20.87;53.92;95357.63;5014445;28;20300;-87
2021/08/10 00:26:16;;;;;;;3.70;3.05;;;20.80;69.60;;;20.92;53.89;95365.69;5015145;28;20216;-88
2021/08/10 00:28:43;;;;;;;4.47;3.30;;;20.80;69.80;;;20.90;54.28;95363.28;5014940;28;20200;-88
2021/08/10 00:31:10;;;;;;;4.47;3.17;;;20.80;69.80;;;20.91;54.12;95361.41;5031881;28;20277;-88
2021/08/10 00:33:37;;;;;;;5.20;3.10;;;20.80;69.90;;;20.91;54.20;95358.75;5034475;28;20222;-88
2021/08/10 00:36:04;;;;;;;4.13;3.10;;;20.80;69.90;;;20.90;54.29;95363.28;5034630;28;20751;-87
2021/08/10 00:38:33;;;;;;;4.93;3.05;;;20.80;70.00;;;20.86;54.19;95356.00;5020892;28;20733;-88
2021/08/10 00:41:02;;;;;;;3.60;3.30;;;20.80;70.00;;;20.89;54.01;95366.19;5034916;28;20227;-88
2021/08/10 00:43:40;;;;;;;4.40;3.00;;;20.80;70.10;;;20.89;54.56;95363.53;5034628;28;20692;-88
2021/08/10 00:46:17;;;;;;;3.55;3.20;;;20.80;70.50;;;20.86;53.98;95370.16;5018567;28;20223;-88
2021/08/10 00:48:45;;;;;;;5.50;3.67;;;20.80;70.20;;;20.84;54.53;95360.81;5030244;28;20196;-87
2021/08/10 00:51:15;;;;;;;4.97;3.47;;;20.80;70.20;;;20.77;54.32;95355.63;4999080;28;20224;-88
2021/08/10 00:53:48;;;;;;;3.70;3.40;;;20.80;70.20;;;20.71;54.94;95360.03;4999159;28;20208;-88
2021/08/10 00:56:18;;;;;;;4.63;3.65;;;20.80;70.40;;;20.71;55.23;95376.03;5018790;28;20222;-87
2021/08/10 00:58:49;;;;;;;4.80;3.88;;;20.70;70.30;;;20.66;54.88;95367.97;5034435;28;20678;-88
2021/08/10 01:01:17;;;;;;;3.55;3.25;;;20.70;70.50;;;20.59;54.92;95375.31;5033410;28;20298;-87
2021/08/10 01:03:45;;;;;;;3.45;3.15;;;20.70;70.50;;;20.57;55.16;95361.47;5034363;28;20713;-87
2021/08/10 01:06:29;;;;;;;5.22;3.80;;;20.60;70.40;;;20.51;55.22;95365.06;5017244;28;20563;-87
2021/08/10 01:09:14;;;;;;;4.40;3.67;;;20.60;70.60;;;20.43;54.68;95359.13;4997752;28;20730;-88
2021/08/10 01:11:54;;;;;;;4.10;3.58;;;20.50;70.60;;;20.37;55.24;95362.75;5004348;28;20213;-89
2021/08/10 01:14:43;;;;;;;3.70;3.25;;;20.50;70.30;;;20.26;55.27;95367.13;4996942;28;20266;-88
2021/08/10 01:17:21;;;;;;;4.28;3.88;;;20.40;70.80;;;20.21;55.52;95372.34;5014167;28;20197;-87
2021/08/10 01:20:05;;;;;;;4.18;3.63;;;20.40;71.20;;;20.12;55.23;95361.28;5010504;28;20686;-88
2021/08/10 01:22:40;;;;;;;4.30;3.90;;;20.30;70.80;;;20.08;55.24;95370.00;4998241;28;20224;-87
2021/08/10 01:25:30;;;;;;;6.50;3.75;;;20.30;71.00;;;19.97;55.46;95364.50;4997591;28;20244;-87
2021/08/10 01:28:41;;;;;;;4.68;3.33;;;20.20;71.20;;;19.88;55.62;95362.47;4997868;28;20200;-88
2021/08/10 01:31:16;;;;;;;5.80;4.20;;;20.10;71.30;;;19.82;56.42;95367.69;5015069;28;20627;-87
2021/08/10 01:33:55;;;;;;;4.25;3.75;;;20.10;71.60;;;19.79;56.34;95370.81;5017883;28;20200;-88
2021/08/10 01:36:24;;;;;;;4.18;3.78;;;20.00;71.50;;;19.73;55.68;95363.78;5033261;28;20219;-88
2021/08/10 01:38:58;;;;;;;4.97;3.67;;;19.90;71.10;;;19.69;56.01;95362.66;5024810;28;20201;-88
2021/08/10 01:41:26;;;;;;;4.90;3.42;;;19.80;71.60;;;19.60;56.07;95356.88;5013816;28;20213;-88
2021/08/10 01:43:55;;;;;;;5.38;3.50;;;19.80;71.30;;;19.59;56.55;95355.28;5013755;28;20608;-88
2021/08/10 01:46:26;;;;;;;4.35;3.95;;;19.80;71.60;;;19.56;56.79;95358.41;5015992;28;20224;-88
2021/08/10 01:48:58;;;;;;;7.15;3.70;;;19.80;72.00;;;19.54;56.47;95354.38;4998016;28;20201;-88
2021/08/10 01:51:31;;;;;;;3.97;3.67;;;19.70;71.90;;;19.48;56.91;95343.63;5017062;28;20258;-88
2021/08/10 01:54:02;;;;;;;4.30;3.50;;;19.60;72.20;;;19.47;56.80;95354.50;5033070;28;20291;-88
2021/08/10 01:56:32;;;;;;;4.22;3.42;;;19.60;72.10;;;19.44;56.92;95357.66;5015490;28;20227;-88
2021/08/10 01:59:02;;;;;;;4.53;3.83;;;19.60;72.00;;;19.40;57.13;95352.00;5016949;28;20299;-88
2021/08/10 02:01:33;;;;;;;4.78;3.22;;;19.50;72.20;;;19.38;56.87;95350.59;5024640;28;20212;-87
2021/08/10 02:04:04;;;;;;;3.55;3.17;;;19.50;72.20;;;19.34;57.53;95350.28;5009978;28;20216;-88
2021/08/10 02:06:34;;;;;;;4.07;3.10;;;19.50;73.50;;;19.30;57.15;95351.81;5046308;28;20223;-88
2021/08/10 02:09:06;;;;;;;3.45;3.08;;;19.40;72.30;;;19.25;57.22;95346.34;5046356;28;20655;-88
2021/08/10 02:11:35;;;;;;;3.40;2.95;;;19.40;72.50;;;19.22;57.34;95349.50;5013600;28;20224;-87
2021/08/10 02:14:09;;;;;;;3.20;2.90;;;19.40;72.60;;;19.19;57.58;95346.25;5005187;28;20777;-88
2021/08/10 02:16:38;;;;;;;3.22;2.92;;;19.30;72.50;;;19.17;57.83;95334.25;5013015;28;20753;-88
2021/08/10 02:19:08;;;;;;;4.97;3.17;;;19.30;72.60;;;19.16;57.47;95344.09;4997601;28;20205;-88
2021/08/10 02:21:52;;;;;;;3.38;2.92;;;19.30;72.60;;;19.12;57.62;95340.28;5002879;28;20211;-88
2021/08/10 02:24:36;;;;;;;4.93;2.88;;;19.20;73.10;;;19.08;57.34;95344.44;5030342;28;20710;-87
2021/08/10 02:27:08;;;;;;;3.13;2.83;;;19.20;73.10;;;19.02;57.42;95338.22;5021483;28;20283;-88
2021/08/10 02:29:42;;;;;;;4.38;2.85;;;19.20;72.90;;;19.01;57.82;95341.09;5016479;28;20196;-88
2021/08/10 02:32:20;;;;;;;3.15;2.60;;;19.20;73.10;;;18.98;57.67;95337.06;5000246;28;20207;-88
2021/08/10 02:34:49;;;;;;;3.17;2.80;;;19.10;72.90;;;18.95;57.21;95337.53;5032343;28;20289;-87
2021/08/10 02:37:18;;;;;;;3.08;2.78;;;19.10;72.60;;;18.92;57.82;95338.00;5019081;28;20193;-88
2021/08/10 02:39:49;;;;;;;4.10;2.80;;;19.10;72.70;;;18.88;57.44;95334.97;5012732;28;20316;-87
2021/08/10 02:42:18;;;;;;;3.20;2.90;;;19.10;73.10;;;18.86;58.50;95330.94;4980392;28;20692;-87
2021/08/10 02:44:49;;;;;;;2.97;2.60;;;19.00;73.30;;;18.85;57.94;95327.47;4996658;28;20278;-87
2021/08/10 02:47:19;;;;;;;3.00;2.70;;;19.00;73.50;;;18.85;58.35;95319.47;5024335;28;20200;-87
2021/08/10 02:49:47;;;;;;;3.00;2.67;;;18.90;73.10;;;18.83;58.04;95324.22;4995792;28;20312;-87
2021/08/10 02:52:15;;;;;;;3.03;2.72;;;18.90;73.10;;;18.80;58.02;95318.59;5012527;28;20201;-87
2021/08/10 02:54:43;;;;;;;3.28;2.97;;;19.00;73.20;;;18.79;57.79;95322.28;5025373;28;20233;-88
2021/08/10 02:57:26;;;;;;;3.90;3.38;;;18.90;73.00;;;18.71;57.87;95328.75;5012800;28;20466;-87
2021/08/10 03:00:00;;;;;;;5.18;3.22;;;18.80;73.40;;;18.60;57.85;95324.25;5012454;28;20224;-87
2021/08/10 03:02:36;;;;;;;4.57;3.22;;;18.80;72.80;;;18.51;57.85;95318.50;5010399;28;20200;-87
2021/08/10 03:05:12;;;;;;;4.55;3.00;;;18.80;73.00;;;18.45;57.49;95325.53;5012425;28;20216;-87
2021/08/10 03:08:01;;;;;;;3.38;3.08;;;18.70;73.20;;;18.31;57.83;95332.94;5035194;28;20191;-87
2021/08/10 03:10:33;;;;;;;3.53;3.20;;;18.60;72.90;;;18.22;57.97;95323.66;5012152;28;20682;-87
2021/08/10 03:13:06;;;;;;;3.35;2.90;;;18.50;72.60;;;18.08;57.76;95313.28;5013670;28;20199;-86
2021/08/10 03:15:40;;;;;;;3.60;3.10;;;18.50;72.90;;;18.04;57.59;95320.09;4996065;28;20243;-87
2021/08/10 03:18:12;;;;;;;3.10;2.80;;;18.40;72.80;;;17.96;57.87;95312.44;5011797;28;20199;-87
2021/08/10 03:20:43;;;;;;;3.35;3.03;;;18.30;72.80;;;17.87;58.14;95306.63;5014636;28;20205;-87
2021/08/10 03:23:18;;;;;;;3.00;2.70;;;18.20;72.70;;;17.78;58.39;95305.34;5025590;28;20216;-88
2021/08/10 03:25:49;;;;;;;2.83;2.63;;;18.10;73.10;;;17.72;58.38;95311.56;5026610;28;20244;-87
2021/08/10 03:28:20;;;;;;;2.92;2.60;;;18.10;73.20;;;17.66;58.09;95315.13;5028505;28;20213;-87
2021/08/10 03:30:47;;;;;;;3.00;2.70;;;18.00;73.30;;;17.59;58.33;95300.09;5005531;28;20212;-86
2021/08/10 03:33:21;;;;;;;2.90;2.67;;;17.90;73.00;;;17.56;58.44;95303.19;5014807;28;20701;-88
2021/08/10 03:35:49;;;;;;;3.90;2.63;;;17.80;72.90;;;17.53;58.69;95300.22;4998401;28;20232;-87
2021/08/10 03:38:19;;;;;;;3.10;2.70;;;17.80;72.90;;;17.47;58.51;95293.97;5032743;28;20235;-87
2021/08/10 03:40:48;;;;;;;3.50;3.00;;;17.70;73.20;;;17.46;58.80;95296.84;5016209;28;20277;-87
2021/08/10 03:43:16;;;;;;;3.83;2.50;;;17.70;73.70;;;17.41;58.90;95287.69;5017615;28;20224;-87
2021/08/10 03:45:43;;;;;;;3.30;2.50;;;17.70;73.60;;;17.42;59.17;95293.84;5009453;28;20232;-87
2021/08/10 03:48:12;;;;;;;3.70;2.90;;;17.70;73.90;;;17.40;59.40;95290.59;5030800;28;20196;-87
2021/08/10 03:50:41;;;;;;;2.97;2.70;;;17.70;74.20;;;17.41;58.73;95294.88;5017648;28;20275;-88
2021/08/10 03:53:08;;;;;;;4.15;2.60;;;17.60;74.00;;;17.39;59.08;95299.56;5011494;28;20201;-87
2021/08/10 03:55:38;;;;;;;4.45;2.30;;;17.50;73.80;;;17.37;59.35;95305.09;5008352;28;20216;-87
2021/08/10 03:58:06;;;;;;;2.70;2.45;;;17.50;74.20;;;17.34;59.34;95308.19;5015273;28;20208;-87
2021/08/10 04:00:39;;;;;;;3.97;2.63;;;17.50;74.00;;;17.33;59.15;95303.13;5003450;28;20216;-86
2021/08/10 04:03:10;;;;;;;3.35;2.58;;;17.50;74.40;;;17.31;59.71;95298.06;4999129;28;20332;-87
2021/08/10 04:05:45;;;;;;;3.45;2.25;;;17.50;74.30;;;17.33;59.53;95306.56;5016878;28;20235;-87
2021/08/10 04:08:16;;;;;;;2.70;2.30;;;17.50;75.00;;;17.32;59.39;95299.69;5021322;28;20216;-87
2021/08/10 04:10:46;;;;;;;3.80;2.67;;;17.50;74.60;;;17.37;59.84;95307.75;4996205;28;20780;-87
2021/08/10 04:13:20;;;;;;;3.65;2.60;;;17.50;74.70;;;17.35;59.59;95298.41;4983069;28;20208;-87
2021/08/10 04:15:53;;;;;;;2.40;2.20;;;17.50;74.70;;;17.43;59.74;95300.72;4997510;28;20709;-86
2021/08/10 04:18:23;;;;;;;5.13;2.80;;;17.50;75.50;;;17.47;59.99;95298.44;4998365;28;20200;-87
2021/08/10 04:20:52;;;;;;;2.88;2.58;;;17.50;75.20;;;17.51;59.59;95299.63;5025899;28;20212;-87
2021/08/10 04:23:24;;;;;;;2.83;2.33;;;17.60;75.30;;;17.55;60.04;95304.25;5017603;28;20223;-87
2021/08/10 04:25:52;;;;;;;2.97;2.50;;;17.60;75.30;;;17.60;59.65;95296.41;5017053;28;20711;-87
2021/08/10 04:28:19;;;;;;;2.58;2.35;;;17.60;75.40;;;17.63;59.73;95287.19;5016873;28;20196;-88
2021/08/10 04:30:47;;;;;;;3.05;2.35;;;17.70;75.60;;;17.73;59.93;95300.72;5024603;28;20243;-86
2021/08/10 04:33:16;;;;;;;5.38;2.22;;;17.70;76.50;;;17.80;60.12;95307.75;5013277;28;20774;-87
2021/08/10 04:35:44;;;;;;;2.67;2.33;;;17.70;75.70;;;17.85;60.40;95302.59;5029427;28;20625;-87
2021/08/10 04:38:12;;;;;;;3.53;2.80;;;17.70;76.00;;;17.87;60.46;95303.16;5013082;28;20198;-87
2021/08/10 04:40:41;;;;;;;2.88;2.67;;;17.80;76.20;;;17.99;60.69;95304.03;5034632;28;20266;-87
2021/08/10 04:43:08;;;;;;;5.22;2.80;;;17.90;76.50;;;18.05;60.27;95304.94;5034840;28;20211;-88
2021/08/10 04:45:38;;;;;;;5.05;2.58;;;17.90;76.60;;;18.10;60.36;95307.72;5014946;28;20279;-87
2021/08/10 04:48:08;;;;;;;3.10;2.78;;;18.00;76.50;;;18.23;60.37;95314.66;4998915;28;20251;-87
2021/08/10 04:50:37;;;;;;;3.13;2.80;;;18.00;76.60;;;18.30;60.38;95306.59;5026071;28;20786;-87
2021/08/10 04:53:06;;;;;;;3.08;2.67;;;18.10;76.60;;;18.34;60.14;95300.59;5018550;28;20254;-87
2021/08/10 04:55:37;;;;;;;4.05;2.60;;;18.10;76.60;;;18.38;60.52;95298.28;5018078;28;20227;-87
2021/08/10 04:58:04;;;;;;;2.67;2.47;;;18.20;76.60;;;18.48;60.07;95303.00;5033731;28;20231;-88
2021/08/10 05:00:33;;;;;;;2.70;2.40;;;18.20;76.70;;;18.52;60.45;95312.16;4997652;28;20311;-88
2021/08/10 05:03:01;;;;;;;3.15;2.63;;;18.30;76.60;;;18.56;60.48;95300.00;5014524;28;20205;-87
2021/08/10 05:05:30;;;;;;;2.85;2.60;;;18.40;76.70;;;18.56;60.60;95297.34;5014454;28;20232;-87
2021/08/10 05:07:59;;;;;;;4.68;2.63;;;18.40;76.60;;;18.64;60.31;95299.66;5000357;28;20326;-88
2021/08/10 05:10:27;;;;;;;2.60;2.40;;;18.50;76.70;;;18.68;60.23;95295.47;5014499;28;20204;-88
2021/08/10 05:12:57;;;;;;;3.58;2.67;;;18.50;76.70;;;18.72;60.20;95294.00;4998363;28;20219;-87
2021/08/10 05:15:27;;;;;;;2.83;2.28;;;18.50;76.70;;;18.73;60.63;95292.13;5014171;28;20714;-88
2021/08/10 05:17:55;;;;;;;2.70;2.50;;;18.60;76.80;;;18.80;60.48;95306.09;5014382;28;20217;-87
2021/08/10 05:20:27;;;;;;;3.95;2.72;;;18.60;76.90;;;18.83;60.90;95300.28;5019371;28;20307;-87
2021/08/10 05:22:54;;;;;;;2.60;2.38;;;18.70;77.00;;;18.88;60.63;95303.09;5014349;28;20208;-87
2021/08/10 05:25:22;;;;;;;3.80;2.90;;;18.70;77.00;;;18.93;60.79;95304.25;5015086;28;20227;-86
2021/08/10 05:27:52;;;;;;;2.92;2.63;;;18.70;77.20;;;18.97;60.89;95292.91;5032591;28;20647;-85
2021/08/10 05:30:19;;;;;;;2.45;2.05;;;18.80;77.30;;;19.06;61.23;95296.00;5012760;28;20267;-87
2021/08/10 05:32:46;;;;;;;3.20;2.67;;;18.80;77.30;;;19.13;60.93;95301.22;4987478;28;20193;-83
2021/08/10 05:35:33;;;;;;;2.65;2.45;;;18.90;77.50;;;19.19;60.65;95295.75;5025890;28;20265;-83
2021/08/10 05:38:01;;;;;;;3.28;2.78;;;19.00;77.60;;;19.30;61.29;95296.75;5022994;28;20231;-83
2021/08/10 05:40:30;;;;;;;3.20;2.70;;;19.00;77.70;;;19.42;61.33;95301.19;5021284;28;20283;-86
2021/08/10 05:43:01;;;;;;;3.20;2.58;;;19.10;78.00;;;19.53;61.48;95295.03;5001848;28;20192;-87
2021/08/10 05:45:28;;;;;;;2.88;2.60;;;19.20;78.00;;;19.62;61.34;95296.25;5031433;28;20232;-84
2021/08/10 05:47:55;;;;;;;2.90;2.42;;;19.30;79.00;;;19.74;60.86;95288.22;5027372;28;20236;-84
2021/08/10 05:50:23;;;;;;;3.13;2.83;;;19.40;78.30;;;19.86;60.77;95290.03;5011193;28;20220;-84
2021/08/10 05:52:53;;;;;;;3.00;2.55;;;19.40;78.20;;;19.96;60.52;95290.19;5028388;28;20284;-84
2021/08/10 05:55:24;;;;;;;2.75;2.55;;;19.50;78.20;;;20.08;60.76;95290.09;5020254;28;20807;-83
2021/08/10 05:57:51;;;;;;;2.80;2.50;;;19.70;78.10;;;20.18;60.94;95292.13;5010579;28;20705;-84
2021/08/10 06:00:19;;;;;;;3.53;2.55;;;19.80;78.00;;;20.33;60.60;95288.91;5026427;28;20207;-83
2021/08/10 06:03:00;;;;;;;3.00;2.70;;;19.80;77.90;;;20.43;60.78;95284.53;5010786;28;20223;-84
2021/08/10 06:05:29;;;;;;;3.28;2.75;;;20.00;77.70;;;20.57;60.46;95292.19;5017664;28;20240;-85
2021/08/10 06:07:57;;;;;;;3.97;2.55;;;20.10;77.50;;;20.66;60.12;95281.91;5006042;28;20203;-85
2021/08/10 06:10:33;;;;;;;3.10;2.60;;;20.20;77.30;;;20.81;59.81;95290.09;5002123;28;20310;-84
2021/08/10 06:13:01;;;;;;;3.03;2.65;;;20.30;77.20;;;20.93;59.78;95293.47;5031066;28;20576;-84
2021/08/10 06:15:32;;;;;;;2.65;2.35;;;20.40;77.00;;;21.03;59.79;95287.47;5011538;28;20278;-84
2021/08/10 06:18:03;;;;;;;3.05;2.45;;;20.50;76.90;;;21.14;59.53;95274.22;5025563;28;20207;-84
2021/08/10 06:20:31;;;;;;;3.20;2.90;;;20.60;76.70;;;21.25;59.00;95274.09;5008989;28;20307;-84
2021/08/10 06:23:00;;;;;;;3.17;2.50;;;20.70;76.50;;;21.37;59.04;95273.16;4996388;28;20211;-83
2021/08/10 06:25:34;;;;;;;3.30;2.50;;;20.80;76.30;;;21.47;58.81;95269.78;5011623;28;20227;-84
2021/08/10 06:28:01;;;;;;;2.97;2.67;;;20.90;76.00;;;21.58;58.71;95272.31;4996116;28;20571;-83
2021/08/10 06:30:30;;;;;;;2.92;2.60;;;21.10;76.30;;;21.70;58.77;95274.84;5008000;28;20225;-84
2021/08/10 06:32:58;;;;;;;3.20;2.33;;;21.10;76.30;;;21.81;58.79;95270.38;5012320;28;20552;-83
2021/08/10 06:35:25;;;;;;;3.05;2.42;;;21.20;76.30;;;21.91;58.45;95273.16;5025089;28;20227;-82
2021/08/10 06:37:53;;;;;;;3.85;2.85;;;21.30;76.00;;;22.03;57.97;95272.16;5011199;28;20293;-83
2021/08/10 06:40:20;;;;;;;2.67;2.42;;;21.40;75.80;;;22.12;57.97;95270.63;5007312;28;20211;-83
2021/08/10 06:42:50;;;;;;;3.17;2.88;;;21.50;75.80;;;22.20;58.16;95264.81;5020126;28;20291;-83
2021/08/10 06:45:19;;;;;;;2.90;2.60;;;21.60;75.80;;;22.31;58.02;95267.56;5010331;28;20327;-82
2021/08/10 06:47:49;;;;;;;2.97;2.67;;;21.70;75.60;;;22.39;57.88;95262.56;5002691;28;20201;-83
2021/08/10 06:50:24;;;;;;;4.38;2.63;;;21.80;75.50;;;22.50;57.55;95263.44;5015934;28;20215;-84
2021/08/10 06:52:51;;;;;;;2.75;2.45;;;21.90;75.10;;;22.61;56.92;95266.97;5018453;28;20295;-83
2021/08/10 06:55:21;;;;;;;2.72;2.30;;;22.00;74.30;;;22.74;56.41;95268.38;4999050;28;20758;-84
2021/08/10 06:57:51;;;;;;;2.80;2.60;;;22.10;73.80;;;22.85;56.12;95269.22;5001450;28;20219;-84
2021/08/10 07:00:19;;;;;;;2.42;2.22;;;22.20;73.80;;;22.95;55.57;95266.59;4999373;28;20212;-82
2021/08/10 07:02:47;;;;;;;2.53;2.33;;;22.30;73.10;;;23.09;55.50;95268.78;4998640;28;20703;-82
2021/08/10 07:05:18;;;;;;;2.80;2.40;;;22.40;73.30;;;23.19;55.22;95263.47;4982068;28;20230;-84
2021/08/10 07:07:47;;;;;;;2.50;2.22;;;22.50;73.20;;;23.28;54.74;95263.78;5002114;28;20203;-84
2021/08/10 07:10:14;;;;;;;2.30;2.10;;;22.60;73.10;;;23.36;54.72;95251.75;5006935;28;20217;-83
2021/08/10 07:12:46;;;;;;;2.95;2.13;;;22.70;72.70;;;23.49;54.68;95253.94;4992098;28;20215;-85
2021/08/10 07:15:15;;;;;;;2.40;2.20;;;22.80;72.70;;;23.55;54.51;95252.88;5018327;28;20654;-85
2021/08/10 07:17:43;;;;;;;5.95;2.40;;;22.90;72.40;;;23.64;54.32;95253.97;5014591;28;20250;-84
2021/08/10 07:20:19;;;;;;;2.47;2.28;;;23.00;72.30;;;23.76;54.02;95258.25;5001616;28;20227;-85
2021/08/10 07:22:50;;;;;;;2.42;2.22;;;23.10;72.10;;;23.83;53.53;95259.56;5020101;28;20270;-85
2021/08/10 07:25:20;;;;;;;3.28;2.80;;;23.10;71.60;;;23.93;53.71;95258.00;5006963;28;20322;-85
2021/08/10 07:27:47;;;;;;;3.20;2.70;;;23.20;71.80;;;24.03;53.73;95262.56;5007326;28;20658;-85
2021/08/10 07:30:15;;;;;;;2.97;2.30;;;23.30;72.00;;;24.11;53.23;95254.78;5022911;28;20228;-85
2021/08/10 07:32:42;;;;;;;2.50;2.22;;;23.40;71.60;;;24.19;53.34;95256.09;5004380;28;20694;-84
2021/08/10 07:35:11;;;;;;;2.40;2.20;;;23.50;71.80;;;24.29;53.37;95257.97;5025069;28;20228;-84
2021/08/10 07:37:43;;;;;;;2.78;2.20;;;23.60;71.70;;;24.38;53.05;95248.31;5031418;28;20204;-84
2021/08/10 07:40:13;;;;;;;2.20;2.00;;;23.70;70.70;;;24.48;52.28;95250.16;5031593;28;20233;-84
2021/08/10 07:42:42;;;;;;;2.25;2.05;;;23.80;69.70;;;24.57;51.41;95245.88;5014044;28;20200;-84
2021/08/10 07:45:10;;;;;;;2.55;2.35;;;23.80;69.50;;;24.62;51.40;95234.34;5031416;28;20237;-85
2021/08/10 07:47:39;;;;;;;3.60;2.55;;;23.90;69.60;;;24.74;50.85;95239.41;5014713;28;20197;-84
2021/08/10 07:50:07;;;;;;;4.18;2.30;;;24.00;69.30;;;24.83;50.41;95232.41;5013456;28;20231;-84
2021/08/10 07:52:35;;;;;;;4.93;2.25;;;24.10;68.60;;;24.87;50.37;95220.03;5004037;28;20218;-85
2021/08/10 07:55:02;;;;;;;2.53;2.00;;;24.10;68.50;;;24.99;49.79;95227.75;5011368;28;20256;-85
2021/08/10 07:57:30;;;;;;;2.60;2.13;;;24.20;67.70;;;25.07;49.35;95226.38;5003911;28;20713;-84
2021/08/10 07:59:57;;;;;;;2.40;2.20;;;24.30;67.80;;;25.15;49.62;95212.38;5005781;28;20688;-84
2021/08/10 08:02:27;;;;;;;2.90;2.20;;;24.40;68.00;;;25.24;49.73;95212.59;5026656;28;20198;-84
2021/08/10 08:04:56;;;;;;;2.53;2.33;;;24.50;68.60;;;25.34;48.85;95215.22;5009152;28;20294;-84
2021/08/10 08:07:23;;;;;;;3.80;2.33;;;24.50;67.70;;;25.41;49.17;95207.69;5007310;28;20206;-84
2021/08/10 08:09:51;;;;;;;2.35;2.05;;;24.60;67.70;;;25.51;48.96;95208.69;5003334;28;20225;-85
2021/08/10 08:12:18;;;;;;;2.92;2.60;;;24.70;67.20;;;25.57;48.24;95203.03;5028895;28;20458;-85
2021/08/10 08:14:47;;;;;;;2.72;2.30;;;24.80;67.30;;;25.61;47.76;95205.94;5014294;28;20231;-84
2021/08/10 08:17:15;;;;;;;10.48;5.78;;;24.90;66.80;;;25.69;47.78;95208.00;5023855;28;20208;-84
2021/08/10 08:19:42;;;;;;;6.28;4.20;;;24.90;66.50;;;25.72;47.39;95199.41;5011189;28;20224;-83
2021/08/10 08:22:13;;;;;;;4.18;3.03;;;25.00;66.50;;;25.84;47.32;95207.09;5021428;28;20212;-85
2021/08/10 08:24:41;;;;;;;3.55;2.70;;;25.10;66.30;;;25.90;46.55;95202.47;5021336;28;20327;-83
2021/08/10 08:27:08;;;;;;;3.63;2.42;;;25.10;66.10;;;25.98;46.98;95209.94;5013966;28;20229;-86
2021/08/10 08:29:36;;;;;;;2.72;2.40;;;25.20;66.00;;;26.08;46.95;95211.75;5005532;28;20303;-84
2021/08/10 08:32:06;;;;;;;2.40;2.20;;;25.30;65.70;;;26.17;46.74;95217.31;5022769;28;20205;-84
2021/08/10 08:34:35;;;;;;;2.35;2.10;;;25.30;65.90;;;26.25;47.07;95205.16;4994785;28;20300;-85
2021/08/10 08:37:04;;;;;;;3.13;2.20;;;25.50;65.80;;;26.35;46.42;95203.16;5007791;28;20202;-85
2021/08/10 08:39:32;;;;;;;3.65;2.20;;;25.50;65.30;;;26.44;46.46;95206.03;5005995;28;20247;-84
2021/08/10 08:42:03;;;;;;;3.13;2.58;;;25.60;65.20;;;26.50;46.06;95198.69;5023026;28;20619;-84
2021/08/10 08:44:35;;;;;;;3.15;2.20;;;25.70;65.20;;;26.60;46.05;95203.16;5021356;28;20219;-85
2021/08/10 08:47:09;;;;;;;3.42;2.20;;;25.80;65.20;;;26.68;45.63;95197.16;5002989;28;20223;-85
2021/08/10 08:49:39;;;;;;;2.50;2.30;;;25.80;65.20;;;26.78;45.69;95204.31;5001678;28;20208;-83
2021/08/10 08:52:13;;;;;;;2.55;2.30;;;25.90;64.80;;;26.86;45.35;95189.44;5006122;28;20400;-85
2021/08/10 08:54:43;;;;;;;5.97;2.72;;;26.00;64.40;;;26.94;45.46;95194.16;5002441;28;20298;-84
2021/08/10 08:57:11;;;;;;;2.42;2.20;;;26.10;64.40;;;27.03;45.22;95197.81;5024731;28;20715;-86
2021/08/10 08:59:43;;;;;;;2.70;2.40;;;26.20;64.40;;;27.13;44.92;95194.97;5006277;28;20675;-85
2021/08/10 09:02:18;;;;;;;2.80;2.30;;;26.20;63.50;;;27.23;44.55;95201.31;5015102;28;20290;-84
2021/08/10 09:04:48;;;;;;;3.25;2.80;;;26.30;63.80;;;27.29;44.10;95195.59;5011584;28;20229;-84
2021/08/10 09:07:18;;;;;;;3.58;2.53;;;26.40;63.20;;;27.39;43.48;95193.81;5006392;28;20204;-85
2021/08/10 09:09:46;;;;;;;2.72;2.22;;;26.50;63.10;;;27.44;42.07;95197.28;5016332;28;20246;-85
2021/08/10 09:12:17;;;;;;;2.85;2.38;;;26.60;62.10;;;27.54;43.01;95195.50;5015431;28;20220;-85
2021/08/10 09:14:52;;;;;;;2.55;2.20;;;26.70;62.80;;;27.64;43.02;95196.16;4997823;28;20225;-83
2021/08/10 09:17:23;;;;;;;2.58;2.30;;;26.80;62.40;;;27.72;41.78;95197.41;5013931;28;20288;-84
2021/08/10 09:20:02;;;;;;;2.67;2.47;;;26.80;61.90;;;27.81;41.93;95192.13;5025468;28;20319;-84
2021/08/10 09:22:37;;;;;;;2.47;2.28;;;27.00;61.70;;;27.88;41.73;95197.94;5012527;28;20266;-84
2021/08/10 09:25:27;;;;;;;2.72;2.30;;;27.00;61.50;;;27.98;42.62;95194.28;5014130;28;20248;-84
2021/08/10 09:28:08;;;;;;;4.05;2.70;;;27.10;61.70;;;28.01;40.71;95193.66;4979102;28;20295;-84
2021/08/10 09:30:39;;;;;;;3.30;2.58;;;27.20;60.30;;;28.07;40.72;95195.19;4997178;28;20220;-83
2021/08/10 09:33:07;;;;;;;3.22;2.60;;;27.20;60.60;;;28.11;40.16;95190.00;4999259;28;20204;-84
2021/08/10 09:35:40;;;;;;;3.53;2.70;;;27.30;60.50;;;28.13;40.76;95177.03;5025734;28;20228;-84
2021/08/10 09:38:16;;;;;;;3.15;2.40;;;27.40;60.50;;;28.25;41.08;95184.66;5010257;28;20642;-83
2021/08/10 09:40:47;;;;;;;2.88;2.50;;;27.40;60.70;;;28.27;39.46;95174.34;5029633;28;20698;-85
2021/08/10 09:43:30;;;;;;;2.75;2.42;;;27.50;59.70;;;28.34;40.65;95165.88;5011780;28;20776;-85
2021/08/10 09:46:18;;;;;;;3.10;2.63;;;27.60;60.70;;;28.39;38.57;95176.56;5016536;28;20475;-85
2021/08/10 09:48:54;;;;;;;3.78;2.83;;;27.60;59.20;;;28.40;38.06;95172.78;5014505;28;20255;-84
2021/08/10 09:51:28;;;;;;;3.53;2.80;;;27.70;57.90;;;28.47;39.13;95169.69;4996905;28;20317;-85
2021/08/10 09:54:07;;;;;;;2.67;2.47;;;27.70;58.60;;;28.52;39.81;95158.78;5012914;28;20293;-85
2021/08/10 09:56:53;;;;;;;3.40;2.80;;;27.80;59.30;;;28.63;40.06;95156.69;5012573;28;20221;-85
2021/08/10 09:59:23;;;;;;;3.08;2.75;;;27.80;59.40;;;28.73;39.34;95170.00;5012954;28;20185;-85
2021/08/10 10:01:59;;;;;;;3.33;2.90;;;27.90;59.10;;;28.80;38.80;95158.81;5012976;28;20245;-86
2021/08/10 10:04:29;;;;;;;2.78;2.50;;;28.00;58.50;;;28.87;39.21;95164.59;5025359;28;20205;-84
2021/08/10 10:07:12;;;;;;;3.05;2.75;;;28.00;58.70;;;28.96;39.67;95156.56;5016206;28;20208;-84
2021/08/10 10:09:45;;;;;;;3.08;2.70;;;28.10;58.90;;;29.05;37.89;95155.56;4996947;28;20708;-85
2021/08/10 10:12:24;;;;;;;3.50;2.60;;;28.20;58.20;;;29.16;39.28;95147.22;5000110;28;20216;-85
2021/08/10 10:15:00;;;;;;;3.42;2.70;;;28.30;59.00;;;29.28;38.69;95146.69;5029985;28;20215;-85
2021/08/10 10:17:32;;;;;;;3.65;2.85;;;28.40;58.40;;;29.38;37.57;95149.97;5013855;28;20733;-84
2021/08/10 10:20:01;;;;;;;3.45;2.75;;;28.50;56.90;;;29.47;37.97;95155.44;4994154;28;20307;-84
2021/08/10 10:22:32;;;;;;;2.97;2.70;;;28.60;57.90;;;29.55;37.47;95146.59;5009790;28;20261;-84
2021/08/10 10:25:02;;;;;;;3.05;2.47;;;28.60;57.10;;;29.60;36.22;95150.28;4995501;28;20229;-86
2021/08/10 10:27:34;;;;;;;2.90;2.65;;;28.70;55.70;;;29.65;35.99;95148.25;4997065;28;20199;-84
2021/08/10 10:30:04;;;;;;;2.50;2.30;;;28.80;55.90;;;29.75;36.63;95146.38;5008197;28;20226;-85
2021/08/10 10:32:31;;;;;;;3.97;2.60;;;28.80;56.60;;;29.80;37.76;95138.94;5028345;28;20199;-84
2021/08/10 10:34:58;;;;;;;2.88;2.58;;;28.90;57.30;;;29.92;36.69;95140.31;5018005;28;20324;-84
2021/08/10 10:37:28;;;;;;;3.13;2.58;;;29.00;55.90;;;29.96;36.54;95133.97;5023409;28;20280;-84